Time;durP1;ratioP1;P1;durP2;ratioP2;P2;SDS_P1;SDS_P2;PMS_P1;PMS_P2;Temp;Humidity;BMP_temperature;BMP_pressure;BME280_temperature;BME280_humidity;BME280_pressure;Samples;Min_cycle;Max_cycle;Signal;HPM_P1;HPM_P2
2023/10/25 00:01:42;;;;;;;14.93;13.53;;;;;;;;;;5013414;28;20228;-83
2023/10/25 00:04:10;;;;;;;17.90;16.03;;;;;;;;;;4995790;28;20630;-86
2023/10/25 00:06:38;;;;;;;20.77;16.83;;;;;;;;;;4999659;28;20290;-84
2023/10/25 00:09:06;;;;;;;20.23;17.27;;;;;;;;;;5011162;28;20224;-85
2023/10/25 00:11:32;;;;;;;18.47;16.57;;;;;;;;;;4995426;28;20248;-87
2023/10/25 00:14:04;;;;;;;18.93;16.90;;;;;;;;;;5015321;28;20704;-87
2023/10/25 00:16:30;;;;;;;17.03;15.43;;;;;;;;;;5008009;28;20612;-86
2023/10/25 00:18:55;;;;;;;16.13;14.53;;;;;;;;;;4976736;28;20228;-87
2023/10/25 00:21:21;;;;;;;14.80;13.40;;;;;;;;;;4999210;28;20212;-86
2023/10/25 00:23:51;;;;;;;15.97;14.37;;;;;;;;;;4998960;28;20608;-85
2023/10/25 00:26:17;;;;;;;15.23;13.53;;;;;;;;;;4993486;28;20303;-86
2023/10/25 00:28:50;;;;;;;13.37;12.07;;;;;;;;;;5000336;28;20216;-86
2023/10/25 00:31:18;;;;;;;13.27;11.97;;;;;;;;;;4998672;28;20212;-87
2023/10/25 00:33:48;;;;;;;12.50;11.37;;;;;;;;;;4999980;28;20222;-87
2023/10/25 00:36:16;;;;;;;12.33;11.03;;;;;;;;;;4995901;28;20299;-85
2023/10/25 00:38:42;;;;;;;12.27;11.07;;;;;;;;;;5006860;28;20225;-84
2023/10/25 00:41:08;;;;;;;13.13;11.83;;;;;;;;;;5007214;28;20601;-85
2023/10/25 00:43:34;;;;;;;12.80;11.53;;;;;;;;;;5003978;28;20215;-86
2023/10/25 00:46:13;;;;;;;14.23;12.83;;;;;;;;;;5007136;28;20261;-85
2023/10/25 00:48:45;;;;;;;14.87;13.47;;;;;;;;;;5011695;28;20311;-87
2023/10/25 00:51:13;;;;;;;14.90;13.37;;;;;;;;;;5024694;28;20266;-85
2023/10/25 00:53:42;;;;;;;15.07;13.57;;;;;;;;;;5012267;28;20748;-88
2023/10/25 00:56:10;;;;;;;14.83;13.33;;;;;;;;;;5004851;28;20231;-85
2023/10/25 00:58:37;;;;;;;14.87;13.17;;;;;;;;;;5005876;28;20232;-85
2023/10/25 01:01:02;;;;;;;13.70;12.40;;;;;;;;;;5011275;28;20227;-85
2023/10/25 01:03:28;;;;;;;14.83;11.67;;;;;;;;;;5000194;28;20215;-85
2023/10/25 01:05:54;;;;;;;13.80;12.50;;;;;;;;;;4988804;28;20696;-86
2023/10/25 01:08:22;;;;;;;14.03;12.67;;;;;;;;;;4985261;28;20228;-85
2023/10/25 01:10:52;;;;;;;14.30;12.90;;;;;;;;;;5015409;28;20223;-86
2023/10/25 01:13:20;;;;;;;15.83;14.20;;;;;;;;;;4999953;28;20642;-85
2023/10/25 01:15:46;;;;;;;15.17;12.20;;;;;;;;;;5010137;28;20239;-84
2023/10/25 01:18:14;;;;;;;14.43;12.50;;;;;;;;;;5001850;28;20274;-85
2023/10/25 01:20:45;;;;;;;13.43;12.23;;;;;;;;;;5009966;28;20243;-84
2023/10/25 01:23:11;;;;;;;14.90;12.13;;;;;;;;;;5003154;28;20432;-84
2023/10/25 01:25:37;;;;;;;14.70;12.40;;;;;;;;;;5001037;28;20224;-85
2023/10/25 01:28:04;;;;;;;11.07;10.13;;;;;;;;;;5026135;28;20449;-84
2023/10/25 01:30:36;;;;;;;11.57;10.57;;;;;;;;;;5035099;28;20215;-86
2023/10/25 01:33:06;;;;;;;13.63;12.23;;;;;;;;;;5054767;28;20219;-86
2023/10/25 01:35:33;;;;;;;11.63;10.60;;;;;;;;;;5047262;28;20247;-86
2023/10/25 01:37:58;;;;;;;12.10;10.83;;;;;;;;;;5041951;28;20215;-87
2023/10/25 01:40:24;;;;;;;14.27;10.90;;;;;;;;;;5052960;28;20638;-86
2023/10/25 01:42:54;;;;;;;12.43;11.13;;;;;;;;;;5007649;28;20618;-86
2023/10/25 01:45:22;;;;;;;13.23;11.17;;;;;;;;;;5029934;28;20212;-88
2023/10/25 01:47:47;;;;;;;12.80;11.33;;;;;;;;;;5043918;28;20216;-86
2023/10/25 01:50:13;;;;;;;14.03;12.23;;;;;;;;;;5024203;28;20221;-87
2023/10/25 01:52:39;;;;;;;12.37;11.10;;;;;;;;;;5020606;28;20247;-87
2023/10/25 01:55:04;;;;;;;14.43;10.47;;;;;;;;;;5028019;28;20225;-86
2023/10/25 01:57:33;;;;;;;12.90;11.63;;;;;;;;;;5008917;28;20228;-87
2023/10/25 02:00:06;;;;;;;16.10;13.00;;;;;;;;;;5028782;28;20275;-84
2023/10/25 02:02:38;;;;;;;14.63;12.17;;;;;;;;;;5041615;28;20280;-84
2023/10/25 02:05:04;;;;;;;13.83;11.10;;;;;;;;;;5020536;28;20232;-86
2023/10/25 02:07:33;;;;;;;12.30;11.07;;;;;;;;;;5015234;28;20201;-86
2023/10/25 02:09:58;;;;;;;12.20;11.07;;;;;;;;;;5012294;28;20228;-87
2023/10/25 02:12:24;;;;;;;13.63;12.23;;;;;;;;;;4986096;28;20228;-84
2023/10/25 02:14:50;;;;;;;13.87;12.10;;;;;;;;;;5011276;28;20705;-86
2023/10/25 02:17:15;;;;;;;12.47;11.27;;;;;;;;;;5025755;28;20263;-82
2023/10/25 02:19:41;;;;;;;13.53;11.90;;;;;;;;;;5020386;28;20215;-82
2023/10/25 02:22:06;;;;;;;14.20;12.40;;;;;;;;;;5023277;28;20204;-82
2023/10/25 02:24:39;;;;;;;13.63;12.30;;;;;;;;;;5016776;28;20227;-82
2023/10/25 02:27:05;;;;;;;18.17;13.30;;;;;;;;;;5018145;28;20217;-84
2023/10/25 02:29:35;;;;;;;16.13;14.43;;;;;;;;;;5025578;28;20790;-84
2023/10/25 02:32:07;;;;;;;15.07;13.53;;;;;;;;;;5030342;28;20223;-84
2023/10/25 02:34:37;;;;;;;20.97;15.33;;;;;;;;;;5021286;28;20224;-81
2023/10/25 02:37:05;;;;;;;17.37;15.50;;;;;;;;;;5021178;28;20232;-83
2023/10/25 02:39:31;;;;;;;17.87;16.10;;;;;;;;;;5029036;28;20210;-81
2023/10/25 02:41:56;;;;;;;21.30;15.40;;;;;;;;;;5041521;28;20223;-80
2023/10/25 02:44:22;;;;;;;17.27;15.50;;;;;;;;;;5021775;28;20306;-82
2023/10/25 02:46:47;;;;;;;26.87;17.40;;;;;;;;;;5037901;28;20223;-82
2023/10/25 02:49:13;;;;;;;20.30;18.03;;;;;;;;;;5021066;28;20220;-81
2023/10/25 02:51:38;;;;;;;21.17;18.97;;;;;;;;;;5008083;28;20295;-86
2023/10/25 02:54:04;;;;;;;23.77;19.17;;;;;;;;;;5027075;28;20318;-82
2023/10/25 02:56:32;;;;;;;25.03;20.03;;;;;;;;;;5020729;28;20312;-85
2023/10/25 02:59:00;;;;;;;22.07;18.73;;;;;;;;;;5005516;28;20284;-86
2023/10/25 03:01:26;;;;;;;20.77;18.57;;;;;;;;;;5006797;28;20228;-87
2023/10/25 03:03:56;;;;;;;19.27;17.17;;;;;;;;;;5018084;28;20227;-85
2023/10/25 03:06:22;;;;;;;18.33;16.23;;;;;;;;;;5038543;28;20247;-87
2023/10/25 03:08:50;;;;;;;20.27;16.90;;;;;;;;;;4988284;28;20223;-84
2023/10/25 03:11:15;;;;;;;17.40;15.03;;;;;;;;;;5030345;28;20213;-86
2023/10/25 03:13:46;;;;;;;23.40;17.20;;;;;;;;;;4989953;28;20468;-84
2023/10/25 03:16:13;;;;;;;20.53;18.30;;;;;;;;;;5022849;28;20232;-86
2023/10/25 03:18:41;;;;;;;24.03;18.67;;;;;;;;;;5020120;28;20251;-86
2023/10/25 03:21:06;;;;;;;21.60;18.17;;;;;;;;;;5018921;28;20215;-85
2023/10/25 03:23:32;;;;;;;21.90;17.50;;;;;;;;;;5019463;28;20239;-85
2023/10/25 03:26:07;;;;;;;20.23;17.87;;;;;;;;;;4989979;28;20291;-86
2023/10/25 03:28:32;;;;;;;24.17;19.13;;;;;;;;;;5037408;28;20220;-82
2023/10/25 03:31:03;;;;;;;21.10;18.87;;;;;;;;;;5038701;28;20593;-86
2023/10/25 03:33:29;;;;;;;20.07;16.97;;;;;;;;;;5001565;28;20228;-84
2023/10/25 03:35:54;;;;;;;22.10;17.37;;;;;;;;;;5005770;28;20258;-82
2023/10/25 03:38:24;;;;;;;21.73;18.33;;;;;;;;;;5039386;28;20220;-83
2023/10/25 03:40:59;;;;;;;21.60;18.43;;;;;;;;;;5022975;28;20236;-78
2023/10/25 03:43:24;;;;;;;23.23;17.73;;;;;;;;;;5026189;28;20227;-78
2023/10/25 03:45:50;;;;;;;21.03;16.97;;;;;;;;;;4995699;28;20230;-78
2023/10/25 03:48:16;;;;;;;20.40;18.27;;;;;;;;;;5013388;28;20216;-77
2023/10/25 03:50:41;;;;;;;23.73;16.73;;;;;;;;;;5012133;28;20597;-77
2023/10/25 03:53:09;;;;;;;19.57;17.03;;;;;;;;;;5017229;28;20243;-78
2023/10/25 03:55:37;;;;;;;19.70;17.50;;;;;;;;;;5028727;28;20685;-77
2023/10/25 03:58:02;;;;;;;21.40;17.87;;;;;;;;;;4995959;28;20228;-77
2023/10/25 04:04:15;;;;;;;19.63;17.53;;;;;;;;;;5028905;28;20215;-78
2023/10/25 04:06:40;;;;;;;23.70;18.37;;;;;;;;;;5029516;28;20697;-77
2023/10/25 04:09:11;;;;;;;21.07;18.87;;;;;;;;;;5003839;28;20311;-77
2023/10/25 04:11:39;;;;;;;21.07;18.77;;;;;;;;;;5010200;28;20221;-77
2023/10/25 04:14:04;;;;;;;20.53;17.83;;;;;;;;;;5009338;28;21226;-77
2023/10/25 04:16:34;;;;;;;22.30;18.93;;;;;;;;;;4995949;28;20227;-78
2023/10/25 04:19:00;;;;;;;22.90;17.70;;;;;;;;;;5010575;28;20231;-77
2023/10/25 04:21:25;;;;;;;24.70;19.40;;;;;;;;;;5009536;28;20211;-78
2023/10/25 04:24:01;;;;;;;22.00;18.53;;;;;;;;;;5012356;28;20231;-77
2023/10/25 04:26:29;;;;;;;24.27;18.80;;;;;;;;;;5010600;28;20223;-76
2023/10/25 04:28:54;;;;;;;21.37;18.00;;;;;;;;;;5029967;28;20230;-78
2023/10/25 04:31:20;;;;;;;25.03;19.13;;;;;;;;;;5018237;28;20220;-78
2023/10/25 04:33:46;;;;;;;20.80;18.10;;;;;;;;;;4995719;28;20235;-79
2023/10/25 04:36:12;;;;;;;24.77;20.13;;;;;;;;;;5017042;28;20756;-78
2023/10/25 04:38:37;;;;;;;23.83;19.77;;;;;;;;;;5013117;28;20220;-78
2023/10/25 04:41:03;;;;;;;21.03;18.27;;;;;;;;;;5028530;28;20738;-78
2023/10/25 04:43:28;;;;;;;23.17;17.43;;;;;;;;;;5027362;28;20220;-78
2023/10/25 04:45:56;;;;;;;18.90;16.90;;;;;;;;;;5015559;28;20308;-78
2023/10/25 04:48:22;;;;;;;19.87;15.70;;;;;;;;;;4977326;28;20213;-77
2023/10/25 04:50:47;;;;;;;20.00;17.80;;;;;;;;;;4994173;28;20281;-77
2023/10/25 04:53:13;;;;;;;18.87;16.87;;;;;;;;;;5034164;28;20263;-77
2023/10/25 04:55:43;;;;;;;20.07;16.43;;;;;;;;;;4998646;28;20234;-78
2023/10/25 04:58:13;;;;;;;18.23;15.87;;;;;;;;;;5010519;28;20238;-77
2023/10/25 05:00:40;;;;;;;17.70;15.87;;;;;;;;;;4993537;28;20227;-77
2023/10/25 05:03:11;;;;;;;23.50;16.60;;;;;;;;;;5009829;28;20220;-77
2023/10/25 05:05:38;;;;;;;17.87;15.97;;;;;;;;;;5017248;28;20228;-79
2023/10/25 05:08:04;;;;;;;20.57;15.83;;;;;;;;;;4994624;28;20301;-78
2023/10/25 05:10:30;;;;;;;21.67;16.40;;;;;;;;;;5011177;28;20234;-77
2023/10/25 05:12:56;;;;;;;19.27;16.83;;;;;;;;;;5010025;28;21202;-78
2023/10/25 05:15:27;;;;;;;19.67;17.53;;;;;;;;;;5025089;28;20227;-77
2023/10/25 05:18:00;;;;;;;17.93;16.07;;;;;;;;;;5009379;28;20236;-78
2023/10/25 05:20:25;;;;;;;18.53;15.10;;;;;;;;;;5009295;28;20236;-77
2023/10/25 05:22:51;;;;;;;17.37;15.50;;;;;;;;;;4999379;28;20224;-77
2023/10/25 05:25:17;;;;;;;17.83;16.00;;;;;;;;;;4987238;28;20831;-77
2023/10/25 05:27:43;;;;;;;17.60;15.70;;;;;;;;;;4996664;28;21015;-78
2023/10/25 05:30:10;;;;;;;20.10;16.63;;;;;;;;;;5012673;28;20267;-77
2023/10/25 05:32:36;;;;;;;22.00;18.23;;;;;;;;;;5013360;28;20227;-77
2023/10/25 05:35:03;;;;;;;20.70;17.60;;;;;;;;;;5030432;28;20304;-77
2023/10/25 05:37:29;;;;;;;19.87;17.27;;;;;;;;;;5012614;28;20251;-78
2023/10/25 05:39:57;;;;;;;21.27;17.43;;;;;;;;;;5019749;28;20228;-78
2023/10/25 05:42:29;;;;;;;19.10;17.10;;;;;;;;;;4995872;28;20603;-78
2023/10/25 05:44:59;;;;;;;20.77;17.93;;;;;;;;;;5011629;28;20220;-78
2023/10/25 05:47:25;;;;;;;19.97;17.73;;;;;;;;;;5027492;28;20242;-78
2023/10/25 05:49:51;;;;;;;19.83;17.83;;;;;;;;;;5014916;28;20216;-78
2023/10/25 05:52:17;;;;;;;22.33;15.97;;;;;;;;;;5012283;28;20235;-78
2023/10/25 05:57:18;;;;;;;20.60;18.43;;;;;;;;;;4998364;28;20216;-74
2023/10/25 05:59:48;;;;;;;20.73;18.53;;;;;;;;;;4975285;28;20252;-74
2023/10/25 06:02:22;;;;;;;14.77;13.23;;;;;;;;;;4985031;28;20699;-73
2023/10/25 06:04:50;;;;;;;17.60;12.67;;;;;;;;;;4990312;28;20229;-73
2023/10/25 06:07:16;;;;;;;51.23;16.43;;;;;;;;;;4981062;28;20221;-74
2023/10/25 06:09:46;;;;;;;84.03;16.47;;;;;;;;;;4985073;28;20233;-74
2023/10/25 06:12:12;;;;;;;52.83;16.70;;;;;;;;;;4955570;28;20245;-74
2023/10/25 06:14:38;;;;;;;22.97;16.23;;;;;;;;;;4989616;28;20699;-74
2023/10/25 06:17:05;;;;;;;22.03;16.07;;;;;;;;;;4973445;28;20237;-73
2023/10/25 06:19:36;;;;;;;18.67;14.23;;;;;;;;;;5003028;28;20328;-73
2023/10/25 06:22:06;;;;;;;16.57;14.87;;;;;;;;;;5004518;28;20301;-73
2023/10/25 06:24:32;;;;;;;19.23;15.50;;;;;;;;;;4990237;28;20224;-74
2023/10/25 06:27:00;;;;;;;15.87;14.10;;;;;;;;;;4998193;28;20228;-75
2023/10/25 06:29:26;;;;;;;14.60;13.20;;;;;;;;;;4998761;28;20664;-73
2023/10/25 06:31:54;;;;;;;18.37;13.33;;;;;;;;;;4966884;28;20228;-74
2023/10/25 06:34:19;;;;;;;12.97;11.77;;;;;;;;;;5012823;28;20233;-73
2023/10/25 06:36:50;;;;;;;12.03;11.00;;;;;;;;;;4995075;28;20225;-74
2023/10/25 06:39:18;;;;;;;12.80;11.07;;;;;;;;;;4999770;28;20222;-73
2023/10/25 06:41:46;;;;;;;12.43;10.90;;;;;;;;;;4984820;28;20533;-72
2023/10/25 06:44:16;;;;;;;10.63;9.53;;;;;;;;;;4983254;28;20227;-73
2023/10/25 06:46:42;;;;;;;10.53;9.53;;;;;;;;;;5001339;28;20232;-73
2023/10/25 06:49:10;;;;;;;10.77;9.67;;;;;;;;;;5000756;28;20208;-72
2023/10/25 06:51:40;;;;;;;13.57;10.50;;;;;;;;;;4982719;28;20279;-73
2023/10/25 06:54:11;;;;;;;11.70;10.57;;;;;;;;;;4999800;28;20295;-73
2023/10/25 06:56:36;;;;;;;18.40;13.60;;;;;;;;;;4999460;28;20628;-74
2023/10/25 06:59:02;;;;;;;12.60;11.30;;;;;;;;;;5000391;28;20260;-72
2023/10/25 07:01:31;;;;;;;15.20;13.43;;;;;;;;;;4995985;28;20225;-73
2023/10/25 07:03:59;;;;;;;15.03;13.43;;;;;;;;;;4999952;28;20713;-72
2023/10/25 07:06:24;;;;;;;16.60;14.67;;;;;;;;;;4972973;28;20249;-73
2023/10/25 07:08:50;;;;;;;16.47;14.67;;;;;;;;;;4965877;28;20252;-74
2023/10/25 07:11:16;;;;;;;14.77;13.47;;;;;;;;;;5002573;28;20674;-73
2023/10/25 07:13:44;;;;;;;15.00;13.33;;;;;;;;;;4983368;28;20232;-73
2023/10/25 07:16:14;;;;;;;14.43;12.83;;;;;;;;;;4997687;28;20592;-73
2023/10/25 07:18:45;;;;;;;16.23;13.33;;;;;;;;;;4982888;28;20710;-74
2023/10/25 07:21:15;;;;;;;15.73;13.70;;;;;;;;;;4974288;28;20265;-72
2023/10/25 07:23:45;;;;;;;19.10;14.33;;;;;;;;;;4996584;28;20693;-73
2023/10/25 07:26:10;;;;;;;15.33;13.77;;;;;;;;;;4982571;28;20225;-73
2023/10/25 07:28:38;;;;;;;16.93;14.43;;;;;;;;;;4988027;28;20758;-72
2023/10/25 07:31:08;;;;;;;14.47;12.93;;;;;;;;;;4989039;28;20222;-72
2023/10/25 07:33:34;;;;;;;17.57;14.27;;;;;;;;;;4999518;28;20225;-73
2023/10/25 07:35:59;;;;;;;15.67;14.03;;;;;;;;;;4981708;28;20807;-72
2023/10/25 07:38:28;;;;;;;19.10;13.70;;;;;;;;;;4990563;28;20725;-74
2023/10/25 07:40:56;;;;;;;15.80;14.20;;;;;;;;;;4982297;28;20630;-73
2023/10/25 07:43:21;;;;;;;16.80;15.20;;;;;;;;;;4998093;28;20228;-72
2023/10/25 07:45:47;;;;;;;17.97;16.20;;;;;;;;;;5001379;28;20224;-74
2023/10/25 07:48:20;;;;;;;19.10;17.20;;;;;;;;;;4996277;28;20580;-73
2023/10/25 07:50:49;;;;;;;19.87;17.50;;;;;;;;;;4999976;28;20229;-73
2023/10/25 07:53:16;;;;;;;20.87;18.63;;;;;;;;;;5011444;28;20718;-73
2023/10/25 07:55:42;;;;;;;21.10;19.00;;;;;;;;;;4997655;28;20213;-73
2023/10/25 07:58:10;;;;;;;21.27;19.20;;;;;;;;;;5002139;28;20228;-75
2023/10/25 08:00:38;;;;;;;21.00;19.00;;;;;;;;;;4999281;28;20700;-74
2023/10/25 08:03:07;;;;;;;20.27;18.27;;;;;;;;;;4997840;28;20209;-74
2023/10/25 08:05:32;;;;;;;20.33;17.53;;;;;;;;;;4998031;28;20299;-73
2023/10/25 08:08:02;;;;;;;18.50;16.73;;;;;;;;;;4999918;28;20709;-74
2023/10/25 08:10:28;;;;;;;17.33;15.63;;;;;;;;;;4981492;28;20679;-73
2023/10/25 08:12:53;;;;;;;17.37;15.63;;;;;;;;;;4979901;28;20280;-74
2023/10/25 08:15:21;;;;;;;15.70;14.30;;;;;;;;;;4980043;28;20227;-74
2023/10/25 08:17:52;;;;;;;15.50;14.00;;;;;;;;;;4988866;28;20274;-74
2023/10/25 08:20:21;;;;;;;15.80;14.30;;;;;;;;;;4997079;28;20812;-73
2023/10/25 08:22:46;;;;;;;14.47;13.00;;;;;;;;;;4992726;28;20217;-74
2023/10/25 08:25:12;;;;;;;15.07;12.97;;;;;;;;;;4988292;28;20228;-74
2023/10/25 08:27:37;;;;;;;12.83;11.50;;;;;;;;;;4976906;28;20291;-74
2023/10/25 08:30:08;;;;;;;18.33;16.50;;;;;;;;;;4993008;28;20567;-75
2023/10/25 08:32:34;;;;;;;17.93;16.13;;;;;;;;;;4996497;28;20213;-74
2023/10/25 08:35:02;;;;;;;13.77;12.33;;;;;;;;;;4978469;28;20275;-74
2023/10/25 08:37:32;;;;;;;12.13;11.00;;;;;;;;;;4991525;28;20213;-74
2023/10/25 08:39:57;;;;;;;10.50;9.63;;;;;;;;;;4995944;28;20218;-74
2023/10/25 08:42:26;;;;;;;10.60;9.70;;;;;;;;;;5012968;28;20231;-75
2023/10/25 08:44:51;;;;;;;13.20;9.03;;;;;;;;;;4968183;28;20213;-72
2023/10/25 08:47:19;;;;;;;8.93;7.40;;;;;;;;;;4988598;28;20287;-74
2023/10/25 08:49:47;;;;;;;6.93;6.33;;;;;;;;;;4982189;28;20224;-74
2023/10/25 08:52:13;;;;;;;7.03;6.33;;;;;;;;;;4996987;28;20233;-74
2023/10/25 08:54:46;;;;;;;6.23;5.57;;;;;;;;;;4987795;28;20236;-73
2023/10/25 08:57:12;;;;;;;6.63;6.03;;;;;;;;;;4990850;28;20225;-73
2023/10/25 08:59:45;;;;;;;7.43;5.23;;;;;;;;;;5014740;28;20213;-73
2023/10/25 09:02:13;;;;;;;5.90;5.30;;;;;;;;;;5003905;28;20220;-73
2023/10/25 09:04:59;;;;;;;6.97;4.27;;;;;;;;;;5008032;28;20235;-74
2023/10/25 09:07:31;;;;;;;7.40;3.90;;;;;;;;;;5000496;28;20225;-74
2023/10/25 09:09:57;;;;;;;5.03;3.33;;;;;;;;;;5019700;28;20662;-74
2023/10/25 09:12:23;;;;;;;4.37;3.80;;;;;;;;;;5004209;28;20354;-74
2023/10/25 09:14:51;;;;;;;5.53;3.73;;;;;;;;;;4998514;28;20634;-74
2023/10/25 09:17:21;;;;;;;4.80;3.67;;;;;;;;;;4997636;28;20221;-74
2023/10/25 09:19:51;;;;;;;5.30;4.30;;;;;;;;;;5007711;28;20229;-74
2023/10/25 09:22:26;;;;;;;9.67;5.83;;;;;;;;;;5007240;28;20232;-73
2023/10/25 09:24:53;;;;;;;6.17;5.40;;;;;;;;;;4998718;28;20827;-74
2023/10/25 09:27:26;;;;;;;7.07;4.93;;;;;;;;;;5015229;28;20227;-73
2023/10/25 09:29:52;;;;;;;7.90;4.93;;;;;;;;;;5018714;28;20221;-73
2023/10/25 09:32:19;;;;;;;6.33;3.67;;;;;;;;;;5003678;28;20270;-74
2023/10/25 09:34:50;;;;;;;5.93;4.30;;;;;;;;;;4983789;28;20233;-73
2023/10/25 09:37:18;;;;;;;4.17;3.57;;;;;;;;;;4986712;28;20591;-72
2023/10/25 09:39:46;;;;;;;4.20;3.33;;;;;;;;;;5018193;28;20223;-74
2023/10/25 09:42:13;;;;;;;3.80;3.43;;;;;;;;;;4990422;28;20225;-72
2023/10/25 09:44:47;;;;;;;5.50;3.10;;;;;;;;;;4999995;28;20278;-73
2023/10/25 09:47:18;;;;;;;3.83;3.00;;;;;;;;;;4995584;28;20224;-73
2023/10/25 09:49:52;;;;;;;6.73;3.30;;;;;;;;;;4987043;28;20309;-73
2023/10/25 09:52:25;;;;;;;4.97;3.00;;;;;;;;;;5002134;28;20232;-72
2023/10/25 09:54:51;;;;;;;3.30;2.70;;;;;;;;;;5014048;28;20221;-73
2023/10/25 09:57:21;;;;;;;4.20;2.63;;;;;;;;;;5000155;28;20221;-74
2023/10/25 09:59:53;;;;;;;4.50;2.57;;;;;;;;;;5000367;28;20279;-74
2023/10/25 10:02:25;;;;;;;4.30;2.77;;;;;;;;;;4989686;28;20229;-74
2023/10/25 10:04:58;;;;;;;4.47;2.50;;;;;;;;;;4987793;28;20280;-74
2023/10/25 10:07:43;;;;;;;2.50;2.20;;;;;;;;;;4989037;28;20372;-74
2023/10/25 10:10:22;;;;;;;2.83;1.90;;;;;;;;;;5007521;28;20216;-73
2023/10/25 10:12:47;;;;;;;2.93;2.00;;;;;;;;;;5000429;28;20706;-73
2023/10/25 10:15:16;;;;;;;2.50;1.83;;;;;;;;;;4998540;28;20229;-73
2023/10/25 10:17:43;;;;;;;4.47;2.10;;;;;;;;;;4982103;28;20779;-74
2023/10/25 10:20:24;;;;;;;3.17;2.08;;;;;;;;;;4989112;28;20293;-73
2023/10/25 10:23:21;;;;;;;3.00;1.95;;;;;;;;;;4984076;28;20231;-73
2023/10/25 10:25:54;;;;;;;4.03;1.65;;;;;;;;;;4970369;28;20315;-73
2023/10/25 10:28:41;;;;;;;4.18;1.85;;;;;;;;;;4999709;28;20229;-73
2023/10/25 10:31:10;;;;;;;2.60;1.53;;;;;;;;;;5000065;28;20225;-72
2023/10/25 10:33:48;;;;;;;4.07;1.93;;;;;;;;;;5003163;28;20225;-73
2023/10/25 10:36:32;;;;;;;2.70;1.67;;;;;;;;;;4998321;28;20221;-72
2023/10/25 10:39:16;;;;;;;3.23;1.80;;;;;;;;;;5006228;28;20232;-72
2023/10/25 10:41:45;;;;;;;3.67;1.75;;;;;;;;;;4990579;28;20722;-73
2023/10/25 10:44:16;;;;;;;6.03;1.85;;;;;;;;;;4986607;28;20221;-72
2023/10/25 10:46:51;;;;;;;5.05;2.00;;;;;;;;;;5000732;28;20714;-72
2023/10/25 10:49:18;;;;;;;3.25;1.95;;;;;;;;;;5000167;28;20593;-72
2023/10/25 10:51:44;;;;;;;5.90;1.70;;;;;;;;;;4979119;28;20679;-73
2023/10/25 10:54:09;;;;;;;5.78;1.80;;;;;;;;;;5016092;28;20221;-73
2023/10/25 10:56:39;;;;;;;2.40;1.70;;;;;;;;;;5010685;28;20701;-74
2023/10/25 10:59:06;;;;;;;4.57;1.63;;;;;;;;;;5004847;28;20235;-73
2023/10/25 11:01:32;;;;;;;3.17;1.98;;;;;;;;;;5002167;23;20228;-78
2023/10/25 11:03:58;;;;;;;2.47;2.20;;;;;;;;;;4984964;28;20305;-78
2023/10/25 11:06:24;;;;;;;2.13;1.92;;;;;;;;;;4984466;28;20244;-78
2023/10/25 11:08:52;;;;;;;3.90;2.40;;;;;;;;;;4996857;28;20224;-78
2023/10/25 11:11:21;;;;;;;3.70;2.35;;;;;;;;;;5004946;28;20289;-79
2023/10/25 11:13:48;;;;;;;4.75;2.05;;;;;;;;;;4981160;28;20683;-79
2023/10/25 11:16:16;;;;;;;2.85;2.10;;;;;;;;;;4965280;28;20254;-79
2023/10/25 11:18:49;;;;;;;4.35;2.25;;;;;;;;;;4975514;28;20224;-78
2023/10/25 11:21:14;;;;;;;3.58;2.10;;;;;;;;;;4978985;28;20587;-79
2023/10/25 11:23:40;;;;;;;4.22;2.40;;;;;;;;;;4990803;28;20801;-78
2023/10/25 11:26:05;;;;;;;15.30;2.60;;;;;;;;;;4970121;28;20603;-78
2023/10/25 11:28:31;;;;;;;2.90;1.87;;;;;;;;;;4968958;28;20227;-79
2023/10/25 11:31:05;;;;;;;2.57;1.70;;;;;;;;;;4963705;28;20228;-78
2023/10/25 11:33:35;;;;;;;2.30;1.40;;;;;;;;;;5010384;28;20701;-78
2023/10/25 11:36:01;;;;;;;3.63;2.00;;;;;;;;;;4983390;28;20247;-79
2023/10/25 11:38:30;;;;;;;4.47;1.70;;;;;;;;;;4996684;28;20220;-81
2023/10/25 11:40:56;;;;;;;8.50;2.00;;;;;;;;;;5000765;28;20220;-79
2023/10/25 11:43:23;;;;;;;2.88;1.45;;;;;;;;;;4979768;28;20247;-79
2023/10/25 11:45:49;;;;;;;2.60;1.38;;;;;;;;;;5000501;28;20228;-78
2023/10/25 11:48:15;;;;;;;3.75;1.30;;;;;;;;;;4984325;28;20232;-77
2023/10/25 11:50:46;;;;;;;6.07;1.20;;;;;;;;;;4999462;28;20213;-78
2023/10/25 11:53:14;;;;;;;2.15;1.40;;;;;;;;;;4981827;28;20240;-78
2023/10/25 11:55:40;;;;;;;2.35;1.42;;;;;;;;;;4982855;28;20367;-79
2023/10/25 11:58:05;;;;;;;3.35;1.38;;;;;;;;;;4980581;28;20229;-78
2023/10/25 12:00:31;;;;;;;3.05;1.50;;;;;;;;;;5000775;28;20216;-79
2023/10/25 12:02:56;;;;;;;1.47;1.37;;;;;;;;;;4980819;28;20220;-79
2023/10/25 12:05:22;;;;;;;2.50;1.40;;;;;;;;;;4964930;28;20581;-79
2023/10/25 12:07:49;;;;;;;2.87;1.30;;;;;;;;;;4985414;28;20224;-79
2023/10/25 12:10:16;;;;;;;2.30;1.15;;;;;;;;;;4997544;28;20530;-78
2023/10/25 12:12:44;;;;;;;2.33;1.23;;;;;;;;;;5001821;28;20276;-79
2023/10/25 12:15:10;;;;;;;1.75;1.30;;;;;;;;;;4987231;28;20244;-78
2023/10/25 12:17:40;;;;;;;1.33;0.82;;;;;;;;;;4988283;28;20320;-78
2023/10/25 12:20:06;;;;;;;3.30;1.17;;;;;;;;;;4983659;28;20559;-79
2023/10/25 12:22:33;;;;;;;4.63;1.25;;;;;;;;;;4965205;28;20255;-80
2023/10/25 12:24:59;;;;;;;4.38;1.20;;;;;;;;;;4971341;28;20212;-78
2023/10/25 12:27:27;;;;;;;2.88;1.33;;;;;;;;;;5016458;28;20221;-79
2023/10/25 12:29:53;;;;;;;2.57;1.17;;;;;;;;;;5001515;28;20760;-79
2023/10/25 12:32:21;;;;;;;2.70;1.27;;;;;;;;;;4983312;28;20226;-79
2023/10/25 12:34:47;;;;;;;9.57;1.50;;;;;;;;;;4994571;28;20227;-79
2023/10/25 12:37:18;;;;;;;4.10;1.58;;;;;;;;;;4999838;28;20212;-79
2023/10/25 12:39:43;;;;;;;3.80;1.00;;;;;;;;;;4990850;28;20308;-80
2023/10/25 12:42:09;;;;;;;3.65;1.20;;;;;;;;;;5011481;28;20235;-78
2023/10/25 12:44:34;;;;;;;3.60;1.10;;;;;;;;;;4997455;28;20278;-81
2023/10/25 12:47:31;;;;;;;2.00;1.07;;;;;;;;;;4996165;28;20224;-79
2023/10/25 12:49:59;;;;;;;1.33;0.80;;;;;;;;;;5011830;28;20324;-79
2023/10/25 12:52:24;;;;;;;1.20;0.80;;;;;;;;;;4996557;28;20223;-79
2023/10/25 12:54:50;;;;;;;4.65;1.08;;;;;;;;;;4983830;28;20603;-81
2023/10/25 12:57:16;;;;;;;1.57;1.00;;;;;;;;;;4980312;28;20223;-80
2023/10/25 12:59:41;;;;;;;2.10;1.10;;;;;;;;;;4993913;28;20250;-79
2023/10/25 13:02:09;;;;;;;3.40;1.10;;;;;;;;;;4979636;28;20249;-80
2023/10/25 13:04:34;;;;;;;1.90;1.10;;;;;;;;;;5005576;28;20224;-80
2023/10/25 13:07:02;;;;;;;1.80;1.10;;;;;;;;;;5000686;28;20235;-79
2023/10/25 13:09:28;;;;;;;3.38;1.27;;;;;;;;;;4982481;28;20223;-79
2023/10/25 13:11:53;;;;;;;4.53;1.07;;;;;;;;;;4989405;28;20212;-79
2023/10/25 13:14:19;;;;;;;2.13;1.00;;;;;;;;;;4970295;28;20232;-79
2023/10/25 13:16:44;;;;;;;3.30;1.20;;;;;;;;;;4997925;28;20235;-79
2023/10/25 13:19:11;;;;;;;1.60;1.02;;;;;;;;;;4984257;28;20650;-79
2023/10/25 13:21:41;;;;;;;4.10;1.20;;;;;;;;;;5002559;28;20236;-77
2023/10/25 13:24:08;;;;;;;1.80;1.08;;;;;;;;;;5022688;28;20232;-78
2023/10/25 13:26:35;;;;;;;3.70;1.10;;;;;;;;;;4967162;28;20232;-78
2023/10/25 13:29:00;;;;;;;1.95;1.05;;;;;;;;;;4965401;28;20224;-79
2023/10/25 13:31:26;;;;;;;1.95;0.90;;;;;;;;;;4982165;28;20225;-79
2023/10/25 13:33:51;;;;;;;5.18;1.38;;;;;;;;;;4980708;28;20229;-80
2023/10/25 13:36:17;;;;;;;2.65;1.20;;;;;;;;;;4999610;28;20252;-80
2023/10/25 13:38:42;;;;;;;1.92;0.80;;;;;;;;;;4983349;28;20212;-78
2023/10/25 13:41:08;;;;;;;1.30;0.93;;;;;;;;;;5000413;28;20685;-79
2023/10/25 13:43:34;;;;;;;3.33;1.20;;;;;;;;;;5004403;28;20228;-79
2023/10/25 13:46:04;;;;;;;4.20;0.90;;;;;;;;;;5008699;23;20294;-72
2023/10/25 13:48:32;;;;;;;2.57;0.93;;;;;;;;;;4996110;28;20229;-74
2023/10/25 13:51:00;;;;;;;2.35;1.00;;;;;;;;;;4964094;28;20225;-74
2023/10/25 13:53:26;;;;;;;2.13;1.05;;;;;;;;;;4984151;28;20236;-73
2023/10/25 13:55:54;;;;;;;3.10;1.35;;;;;;;;;;4980435;28;20225;-73
2023/10/25 13:58:21;;;;;;;3.63;1.50;;;;;;;;;;4997589;28;20246;-73
2023/10/25 14:00:51;;;;;;;2.60;1.30;;;;;;;;;;4995906;28;20693;-73
2023/10/25 14:03:20;;;;;;;2.53;1.13;;;;;;;;;;5000026;28;20232;-73
2023/10/25 14:05:47;;;;;;;2.80;1.42;;;;;;;;;;4981411;28;20214;-72
2023/10/25 14:08:16;;;;;;;1.60;0.88;;;;;;;;;;4961183;28;20225;-73
2023/10/25 14:10:47;;;;;;;1.50;0.80;;;;;;;;;;4959371;28;20311;-72
2023/10/25 14:13:13;;;;;;;2.30;1.05;;;;;;;;;;4985304;28;20265;-72
2023/10/25 14:15:41;;;;;;;3.05;1.10;;;;;;;;;;4975476;28;20233;-73
2023/10/25 14:18:12;;;;;;;1.63;0.90;;;;;;;;;;4976795;28;20208;-74
2023/10/25 14:20:41;;;;;;;2.25;1.17;;;;;;;;;;4992666;28;20224;-73
2023/10/25 14:23:07;;;;;;;2.40;1.07;;;;;;;;;;4975413;28;20260;-73
2023/10/25 14:25:43;;;;;;;1.23;1.00;;;;;;;;;;4989924;28;20217;-73
2023/10/25 14:28:12;;;;;;;2.00;0.98;;;;;;;;;;5012563;28;20221;-73
2023/10/25 14:30:43;;;;;;;2.70;1.20;;;;;;;;;;4959534;28;20248;-73
2023/10/25 14:33:13;;;;;;;1.87;0.97;;;;;;;;;;4973076;28;20715;-74
2023/10/25 14:35:38;;;;;;;4.80;1.13;;;;;;;;;;4977511;28;20236;-73
2023/10/25 14:38:06;;;;;;;2.70;1.10;;;;;;;;;;4992145;28;20209;-73
2023/10/25 14:40:40;;;;;;;2.20;1.30;;;;;;;;;;4994372;28;20578;-73